Time;durP1;ratioP1;P1;durP2;ratioP2;P2;SDS_P1;SDS_P2;PMS_P1;PMS_P2;Temp;Humidity;BMP_temperature;BMP_pressure;BME280_temperature;BME280_humidity;BME280_pressure;Samples;Min_cycle;Max_cycle;Signal;HPM_P1;HPM_P2
2024/02/18 06:02:02;;;;;;;31.83;16.97;;;;;;;;;;5268586;23;20489;-76
2024/02/18 06:04:29;;;;;;;29.27;16.50;;;;;;;;;;5015430;28;20414;-76
2024/02/18 06:06:54;;;;;;;30.23;17.40;;;;;;;;;;5015264;28;20449;-76
2024/02/18 06:09:20;;;;;;;32.47;17.17;;;;;;;;;;5015015;28;20425;-76
2024/02/18 06:11:47;;;;;;;32.03;15.20;;;;;;;;;;5014789;28;20441;-76
2024/02/18 06:14:13;;;;;;;33.30;17.90;;;;;;;;;;5015331;28;20437;-75
2024/02/18 06:16:39;;;;;;;29.77;17.27;;;;;;;;;;5014702;28;20515;-75
2024/02/18 06:19:05;;;;;;;32.97;16.40;;;;;;;;;;5014895;28;20414;-75
2024/02/18 06:21:31;;;;;;;29.13;16.60;;;;;;;;;;5014741;28;20438;-74
2024/02/18 06:23:57;;;;;;;37.33;19.10;;;;;;;;;;5014832;28;20510;-75
2024/02/18 06:26:24;;;;;;;31.60;17.90;;;;;;;;;;5013856;28;20507;-74
2024/02/18 06:28:49;;;;;;;33.60;17.20;;;;;;;;;;5015239;28;20850;-74
2024/02/18 06:31:17;;;;;;;41.00;18.77;;;;;;;;;;5015203;28;20468;-74
2024/02/18 06:33:46;;;;;;;38.43;18.47;;;;;;;;;;5014857;28;20518;-74
2024/02/18 06:36:12;;;;;;;35.90;18.57;;;;;;;;;;5014670;28;20480;-74
2024/02/18 06:38:41;;;;;;;29.57;15.97;;;;;;;;;;5014583;28;20414;-75
2024/02/18 06:41:07;;;;;;;39.63;18.57;;;;;;;;;;5014066;28;20438;-75
2024/02/18 06:43:33;;;;;;;37.50;17.47;;;;;;;;;;5014329;28;20916;-74
2024/02/18 06:45:59;;;;;;;30.07;16.90;;;;;;;;;;5012849;28;20449;-75
2024/02/18 06:48:25;;;;;;;31.80;16.53;;;;;;;;;;5014245;28;20449;-75
2024/02/18 06:50:51;;;;;;;37.67;18.37;;;;;;;;;;5013896;28;20800;-74
2024/02/18 06:53:17;;;;;;;34.63;16.80;;;;;;;;;;5012921;28;20940;-75
2024/02/18 06:55:43;;;;;;;30.40;15.60;;;;;;;;;;5015284;28;20413;-74
2024/02/18 06:58:11;;;;;;;47.10;16.80;;;;;;;;;;5020352;28;20414;-74
2024/02/18 07:00:36;;;;;;;54.97;17.43;;;;;;;;;;5018139;28;20449;-75
2024/02/18 07:03:05;;;;;;;36.40;15.37;;;;;;;;;;5015463;28;20422;-75
2024/02/18 07:05:31;;;;;;;28.33;13.60;;;;;;;;;;5014513;28;20421;-74
2024/02/18 07:07:57;;;;;;;32.50;16.33;;;;;;;;;;5013898;28;20449;-75
2024/02/18 07:10:23;;;;;;;29.00;14.80;;;;;;;;;;5014229;28;20892;-74
2024/02/18 07:12:49;;;;;;;26.97;14.03;;;;;;;;;;5013766;28;20433;-74
2024/02/18 07:15:15;;;;;;;32.10;14.17;;;;;;;;;;5013958;28;20824;-74
2024/02/18 07:17:41;;;;;;;27.60;14.10;;;;;;;;;;5013972;28;20421;-75
2024/02/18 07:20:08;;;;;;;26.53;14.37;;;;;;;;;;5013161;28;20441;-75
2024/02/18 07:22:34;;;;;;;32.17;15.43;;;;;;;;;;5013393;28;20457;-75
2024/02/18 07:25:00;;;;;;;29.67;15.40;;;;;;;;;;5013484;28;20496;-75
2024/02/18 07:27:26;;;;;;;34.87;16.93;;;;;;;;;;5012213;28;21032;-74
2024/02/18 07:29:52;;;;;;;30.00;15.13;;;;;;;;;;5013697;28;20506;-75
2024/02/18 07:32:18;;;;;;;31.40;15.67;;;;;;;;;;5013354;28;20425;-75
2024/02/18 07:34:44;;;;;;;35.23;16.10;;;;;;;;;;5012238;28;20433;-75
2024/02/18 07:37:10;;;;;;;31.70;15.60;;;;;;;;;;5011488;28;20491;-75
2024/02/18 07:39:37;;;;;;;34.07;15.80;;;;;;;;;;5012296;28;20523;-73
2024/02/18 07:42:03;;;;;;;34.37;15.83;;;;;;;;;;5013543;28;20437;-74
2024/02/18 07:44:29;;;;;;;20.50;12.93;;;;;;;;;;5013751;28;20418;-75
2024/02/18 07:46:57;;;;;;;25.60;13.67;;;;;;;;;;5013443;28;20548;-74
2024/02/18 07:49:23;;;;;;;22.80;12.50;;;;;;;;;;5012034;28;20414;-75
2024/02/18 07:51:52;;;;;;;26.63;15.10;;;;;;;;;;5013023;28;20457;-75
2024/02/18 07:54:18;;;;;;;23.00;13.20;;;;;;;;;;5013203;28;20472;-75
2024/02/18 07:56:48;;;;;;;20.47;12.40;;;;;;;;;;5013327;28;20414;-75
2024/02/18 07:59:14;;;;;;;24.27;13.83;;;;;;;;;;5013221;28;20488;-76
2024/02/18 08:01:40;;;;;;;21.73;12.33;;;;;;;;;;5011189;28;20545;-75
2024/02/18 08:04:06;;;;;;;20.63;12.67;;;;;;;;;;5012853;28;20418;-75
2024/02/18 08:06:32;;;;;;;22.63;12.13;;;;;;;;;;5012965;28;20450;-75
2024/02/18 08:08:59;;;;;;;18.63;12.23;;;;;;;;;;5013096;28;20437;-73
2024/02/18 08:11:25;;;;;;;20.03;11.87;;;;;;;;;;5012002;28;20438;-74
2024/02/18 08:13:51;;;;;;;15.90;11.37;;;;;;;;;;5012653;28;20418;-73
2024/02/18 08:16:19;;;;;;;22.23;12.53;;;;;;;;;;5012128;28;20476;-73
2024/02/18 08:18:45;;;;;;;24.03;13.17;;;;;;;;;;5012965;28;20468;-72
2024/02/18 08:21:11;;;;;;;20.17;11.20;;;;;;;;;;5012264;28;20445;-71
2024/02/18 08:23:37;;;;;;;21.20;12.10;;;;;;;;;;5012350;28;20418;-72
2024/02/18 08:26:04;;;;;;;20.20;12.00;;;;;;;;;;5012351;28;20437;-71
2024/02/18 08:28:30;;;;;;;18.70;11.50;;;;;;;;;;5012645;28;20438;-72
2024/02/18 08:30:56;;;;;;;19.30;11.80;;;;;;;;;;5012343;28;20445;-71
2024/02/18 08:33:22;;;;;;;17.87;10.20;;;;;;;;;;5012232;28;20913;-72
2024/02/18 08:35:49;;;;;;;19.80;10.97;;;;;;;;;;5012716;28;20408;-72
2024/02/18 08:38:15;;;;;;;17.40;10.60;;;;;;;;;;5016647;28;20414;-72
2024/02/18 08:40:41;;;;;;;18.90;11.10;;;;;;;;;;5020717;28;20470;-72
2024/02/18 08:43:07;;;;;;;16.10;11.13;;;;;;;;;;5019694;28;20425;-72
2024/02/18 08:45:33;;;;;;;21.60;11.07;;;;;;;;;;5011121;28;20508;-72
2024/02/18 08:47:59;;;;;;;14.53;10.20;;;;;;;;;;5012195;28;20544;-72
2024/02/18 08:50:26;;;;;;;15.43;10.83;;;;;;;;;;5011636;28;20959;-72
2024/02/18 08:52:52;;;;;;;16.17;10.57;;;;;;;;;;5012015;28;20414;-73
2024/02/18 08:55:18;;;;;;;17.63;10.80;;;;;;;;;;5012261;28;20410;-72
2024/02/18 08:57:44;;;;;;;18.20;11.33;;;;;;;;;;5012174;28;20410;-72
2024/02/18 09:00:10;;;;;;;15.70;10.87;;;;;;;;;;5015741;28;20410;-72
2024/02/18 09:02:36;;;;;;;17.60;10.80;;;;;;;;;;5013851;28;20956;-72
2024/02/18 09:05:02;;;;;;;18.73;11.77;;;;;;;;;;5011942;28;20413;-72
2024/02/18 09:07:30;;;;;;;15.33;10.80;;;;;;;;;;5011998;28;20504;-72
2024/02/18 09:09:56;;;;;;;18.23;11.00;;;;;;;;;;5012064;28;20410;-73
2024/02/18 09:12:22;;;;;;;14.57;9.73;;;;;;;;;;5011797;28;20430;-73
2024/02/18 09:14:48;;;;;;;15.97;11.40;;;;;;;;;;5011768;28;20417;-73
2024/02/18 09:17:17;;;;;;;16.87;11.80;;;;;;;;;;5011927;28;20417;-72
2024/02/18 09:19:46;;;;;;;22.33;13.10;;;;;;;;;;5011905;28;20414;-73
2024/02/18 09:22:12;;;;;;;14.27;10.53;;;;;;;;;;5011175;28;20459;-73
2024/02/18 09:24:38;;;;;;;22.00;13.03;;;;;;;;;;5011240;28;20429;-73
2024/02/18 09:27:06;;;;;;;19.40;11.70;;;;;;;;;;5011719;28;20808;-72
2024/02/18 09:29:32;;;;;;;15.17;10.03;;;;;;;;;;5011449;28;20414;-72
2024/02/18 09:31:58;;;;;;;22.40;10.70;;;;;;;;;;5011478;28;20766;-72
2024/02/18 09:34:24;;;;;;;23.63;12.47;;;;;;;;;;5011682;28;20414;-72
2024/02/18 09:36:50;;;;;;;18.90;12.00;;;;;;;;;;5011310;28;20506;-72
2024/02/18 09:39:16;;;;;;;20.67;11.67;;;;;;;;;;5013837;28;20787;-72
2024/02/18 09:41:45;;;;;;;17.73;11.83;;;;;;;;;;5017176;28;20516;-71
2024/02/18 09:44:13;;;;;;;14.37;10.80;;;;;;;;;;5012253;28;20414;-72
2024/02/18 09:46:40;;;;;;;17.77;10.90;;;;;;;;;;5011950;28;20460;-72
2024/02/18 09:49:07;;;;;;;22.20;12.50;;;;;;;;;;5011936;28;20425;-72
2024/02/18 09:51:34;;;;;;;19.13;11.80;;;;;;;;;;5011199;28;21022;-72
2024/02/18 09:54:00;;;;;;;23.73;12.47;;;;;;;;;;5011982;28;20414;-72
2024/02/18 09:56:28;;;;;;;20.07;12.30;;;;;;;;;;5011702;28;20422;-72
2024/02/18 09:58:54;;;;;;;19.77;11.87;;;;;;;;;;5010448;28;20795;-72
2024/02/18 10:01:21;;;;;;;19.30;11.60;;;;;;;;;;5013850;28;20825;-72
2024/02/18 10:03:48;;;;;;;21.60;12.83;;;;;;;;;;5015310;28;20421;-72
2024/02/18 10:06:14;;;;;;;19.37;11.80;;;;;;;;;;5017342;28;20840;-72
2024/02/18 10:08:51;;;;;;;18.30;12.00;;;;;;;;;;5016521;28;20472;-72
2024/02/18 10:11:17;;;;;;;22.00;11.50;;;;;;;;;;5014576;28;20858;-72
2024/02/18 10:13:43;;;;;;;16.03;11.70;;;;;;;;;;5014988;28;20441;-72
2024/02/18 10:16:09;;;;;;;20.90;11.87;;;;;;;;;;5014700;28;20417;-72
2024/02/18 10:18:35;;;;;;;22.93;11.40;;;;;;;;;;5014804;28;20410;-73
2024/02/18 10:21:01;;;;;;;16.60;10.60;;;;;;;;;;5014605;28;20456;-73
2024/02/18 10:23:27;;;;;;;18.30;11.63;;;;;;;;;;5015141;28;20417;-73
2024/02/18 10:25:53;;;;;;;18.73;11.13;;;;;;;;;;5009940;28;20422;-74
2024/02/18 10:28:20;;;;;;;17.33;10.50;;;;;;;;;;5013415;28;20473;-76
2024/02/18 10:30:46;;;;;;;16.47;10.37;;;;;;;;;;5014103;28;20438;-73
2024/02/18 10:33:13;;;;;;;18.37;10.97;;;;;;;;;;5014423;28;20462;-76
2024/02/18 10:35:39;;;;;;;20.13;9.57;;;;;;;;;;5014241;28;20783;-77
2024/02/18 10:38:07;;;;;;;14.73;9.57;;;;;;;;;;5014668;28;20546;-74
2024/02/18 10:40:45;;;;;;;17.60;9.30;;;;;;;;;;5014096;28;20773;-74
2024/02/18 10:43:12;;;;;;;14.47;8.80;;;;;;;;;;5014063;28;20932;-79
2024/02/18 10:45:40;;;;;;;14.60;10.40;;;;;;;;;;5018282;28;20418;-78
2024/02/18 10:48:08;;;;;;;15.97;9.17;;;;;;;;;;5023044;28;20976;-77
2024/02/18 10:50:36;;;;;;;14.43;9.97;;;;;;;;;;5022636;28;20853;-78
2024/02/18 10:53:07;;;;;;;16.97;10.40;;;;;;;;;;5014367;28;20484;-76
2024/02/18 10:55:42;;;;;;;14.97;9.83;;;;;;;;;;5014301;28;20414;-77
2024/02/18 10:58:16;;;;;;;18.37;10.90;;;;;;;;;;5014619;28;20409;-78
2024/02/18 11:00:44;;;;;;;12.77;8.90;;;;;;;;;;5014142;28;20480;-77
2024/02/18 11:03:20;;;;;;;12.83;8.47;;;;;;;;;;5014105;28;20517;-77
2024/02/18 11:05:47;;;;;;;19.57;9.37;;;;;;;;;;5013873;28;20895;-79
2024/02/18 11:08:13;;;;;;;17.70;9.27;;;;;;;;;;5016057;28;20507;-76
2024/02/18 11:10:39;;;;;;;14.00;9.00;;;;;;;;;;5013962;28;20438;-78
2024/02/18 11:13:05;;;;;;;28.23;9.20;;;;;;;;;;5015159;28;20429;-78
2024/02/18 11:15:33;;;;;;;13.43;8.40;;;;;;;;;;5018035;28;20414;-78
2024/02/18 11:17:59;;;;;;;14.70;8.83;;;;;;;;;;5021021;28;20414;-78
2024/02/18 11:20:25;;;;;;;13.40;8.80;;;;;;;;;;5017100;28;20426;-79
2024/02/18 11:22:52;;;;;;;13.00;8.17;;;;;;;;;;5019763;28;20439;-78
2024/02/18 11:25:18;;;;;;;10.40;7.30;;;;;;;;;;5017576;28;20786;-79
2024/02/18 11:27:45;;;;;;;12.03;7.50;;;;;;;;;;5024781;28;20449;-79
2024/02/18 11:30:11;;;;;;;10.93;7.90;;;;;;;;;;5032490;28;20560;-79
2024/02/18 11:32:37;;;;;;;11.40;6.80;;;;;;;;;;5019700;28;20410;-76
2024/02/18 11:35:10;;;;;;;13.70;8.80;;;;;;;;;;5018061;28;20437;-78
2024/02/18 11:37:37;;;;;;;14.30;7.70;;;;;;;;;;5019383;28;20453;-81
2024/02/18 11:40:07;;;;;;;14.37;8.50;;;;;;;;;;5018369;28;20417;-77
2024/02/18 11:42:37;;;;;;;14.17;7.80;;;;;;;;;;5020307;28;20501;-76
2024/02/18 11:45:06;;;;;;;13.10;8.37;;;;;;;;;;5018892;28;20425;-79
2024/02/18 11:47:35;;;;;;;16.03;7.90;;;;;;;;;;5018713;28;20462;-77
2024/02/18 11:50:01;;;;;;;12.13;7.67;;;;;;;;;;5020392;28;20410;-79
2024/02/18 11:52:27;;;;;;;13.43;7.50;;;;;;;;;;5018646;28;20437;-78
2024/02/18 11:54:53;;;;;;;13.40;8.00;;;;;;;;;;5018729;28;20441;-77
2024/02/18 11:57:19;;;;;;;13.20;7.47;;;;;;;;;;5015478;28;20414;-76
2024/02/18 11:59:45;;;;;;;13.57;7.40;;;;;;;;;;5013981;28;20406;-77
2024/02/18 12:02:15;;;;;;;10.70;7.37;;;;;;;;;;5014552;28;20876;-74
2024/02/18 12:04:41;;;;;;;10.53;7.07;;;;;;;;;;5013204;28;20414;-76
2024/02/18 12:07:07;;;;;;;10.37;6.80;;;;;;;;;;5015238;28;20775;-79
2024/02/18 12:09:34;;;;;;;15.27;7.80;;;;;;;;;;5014135;28;20425;-79
2024/02/18 12:12:02;;;;;;;12.00;7.33;;;;;;;;;;5015895;28;20517;-77
2024/02/18 12:14:28;;;;;;;9.67;7.50;;;;;;;;;;5013158;28;20410;-76
2024/02/18 12:16:55;;;;;;;11.83;7.83;;;;;;;;;;5015508;28;20776;-73
2024/02/18 12:19:21;;;;;;;14.57;8.00;;;;;;;;;;5013593;28;20410;-77
2024/02/18 12:21:54;;;;;;;9.40;6.47;;;;;;;;;;5014151;28;20442;-77
2024/02/18 12:24:20;;;;;;;11.23;6.37;;;;;;;;;;5013677;28;20769;-76
2024/02/18 12:26:47;;;;;;;9.10;5.30;;;;;;;;;;5012673;28;20846;-79
2024/02/18 12:29:13;;;;;;;9.37;6.57;;;;;;;;;;5013829;28;20414;-77
2024/02/18 12:31:41;;;;;;;6.93;5.50;;;;;;;;;;5013987;28;20452;-76
2024/02/18 12:34:08;;;;;;;9.73;6.53;;;;;;;;;;5017194;28;20471;-77
2024/02/18 12:36:34;;;;;;;8.50;6.20;;;;;;;;;;5013598;28;20435;-76
2024/02/18 12:39:00;;;;;;;9.83;6.37;;;;;;;;;;5004400;28;20429;-74
2024/02/18 12:41:26;;;;;;;9.13;6.20;;;;;;;;;;5013951;28;20944;-74
2024/02/18 12:43:52;;;;;;;11.20;6.27;;;;;;;;;;5015932;28;20425;-75
2024/02/18 12:46:18;;;;;;;11.40;6.60;;;;;;;;;;5015750;28;20409;-74
2024/02/18 12:48:44;;;;;;;12.50;7.10;;;;;;;;;;5015592;28;20418;-73
2024/02/18 12:51:13;;;;;;;9.60;6.13;;;;;;;;;;5014864;28;20441;-73
2024/02/18 12:53:40;;;;;;;9.97;5.50;;;;;;;;;;5010274;28;20568;-74
2024/02/18 12:56:07;;;;;;;8.50;6.10;;;;;;;;;;5012741;28;20410;-75
2024/02/18 12:58:35;;;;;;;5.67;4.20;;;;;;;;;;5014801;28;20777;-75
2024/02/18 13:01:01;;;;;;;8.73;4.80;;;;;;;;;;5011855;28;20441;-75
2024/02/18 13:03:27;;;;;;;9.00;5.17;;;;;;;;;;5009218;28;20840;-75
2024/02/18 13:05:55;;;;;;;11.40;5.67;;;;;;;;;;5012208;28;20502;-76
2024/02/18 13:08:23;;;;;;;10.40;5.60;;;;;;;;;;5012064;28;20465;-76
2024/02/18 13:10:48;;;;;;;9.73;6.87;;;;;;;;;;5011533;28;20491;-76
2024/02/18 13:13:14;;;;;;;6.83;5.20;;;;;;;;;;5010620;28;20874;-76
2024/02/18 13:15:40;;;;;;;9.30;5.93;;;;;;;;;;5012155;28;20410;-76
2024/02/18 13:18:06;;;;;;;11.13;6.27;;;;;;;;;;5012412;28;20920;-76
2024/02/18 13:20:32;;;;;;;11.13;6.13;;;;;;;;;;5011568;28;20556;-76
2024/02/18 13:22:58;;;;;;;11.27;6.47;;;;;;;;;;5011302;28;20413;-75
2024/02/18 13:25:24;;;;;;;11.80;6.33;;;;;;;;;;5011521;28;20501;-76
2024/02/18 13:27:50;;;;;;;12.33;7.80;;;;;;;;;;5011902;28;20489;-76
2024/02/18 13:30:17;;;;;;;8.33;5.60;;;;;;;;;;5012208;28;20879;-76
2024/02/18 13:32:46;;;;;;;19.30;7.10;;;;;;;;;;5011566;28;20764;-76
2024/02/18 13:35:12;;;;;;;11.97;7.60;;;;;;;;;;5012421;28;20398;-76
2024/02/18 13:37:38;;;;;;;13.40;6.97;;;;;;;;;;5015681;28;20409;-76
2024/02/18 13:40:06;;;;;;;9.87;6.80;;;;;;;;;;5014483;28;20472;-76
2024/02/18 13:42:32;;;;;;;9.37;7.50;;;;;;;;;;5036222;28;20457;-75
2024/02/18 13:44:58;;;;;;;13.43;7.43;;;;;;;;;;5030398;28;20477;-76
2024/02/18 13:47:24;;;;;;;14.80;7.33;;;;;;;;;;5015201;28;20462;-75
2024/02/18 13:49:52;;;;;;;12.17;7.93;;;;;;;;;;5016773;28;20913;-75
2024/02/18 13:52:18;;;;;;;14.13;7.70;;;;;;;;;;5018859;28;20489;-75
2024/02/18 13:54:45;;;;;;;13.13;6.47;;;;;;;;;;5018249;28;20406;-76
2024/02/18 13:57:11;;;;;;;12.37;7.37;;;;;;;;;;5014872;28;20414;-76
2024/02/18 13:59:37;;;;;;;12.57;7.37;;;;;;;;;;5014963;28;20548;-76
2024/02/18 14:02:05;;;;;;;10.33;7.00;;;;;;;;;;5014292;28;20540;-76
2024/02/18 14:04:31;;;;;;;12.37;6.87;;;;;;;;;;5014981;28;20422;-76
2024/02/18 14:06:57;;;;;;;12.53;7.80;;;;;;;;;;5014667;28;20453;-76
2024/02/18 14:09:23;;;;;;;14.27;6.80;;;;;;;;;;5014685;28;20406;-75
2024/02/18 14:11:49;;;;;;;14.17;7.43;;;;;;;;;;5015755;28;20513;-76
2024/02/18 14:14:14;;;;;;;13.87;8.57;;;;;;;;;;5014766;28;20874;-76
2024/02/18 14:16:41;;;;;;;12.00;7.43;;;;;;;;;;5014752;28;20414;-75
2024/02/18 14:19:07;;;;;;;13.80;6.80;;;;;;;;;;5015550;28;20422;-76
2024/02/18 14:21:33;;;;;;;13.47;8.03;;;;;;;;;;5029367;28;20434;-75
2024/02/18 14:23:59;;;;;;;10.33;6.80;;;;;;;;;;5019398;28;20442;-76
2024/02/18 14:26:25;;;;;;;14.30;8.83;;;;;;;;;;5015347;28;20413;-76
2024/02/18 14:28:52;;;;;;;12.03;8.00;;;;;;;;;;5014683;28;20418;-76
2024/02/18 14:31:18;;;;;;;18.00;9.63;;;;;;;;;;5014517;28;20426;-76
2024/02/18 14:33:44;;;;;;;15.73;9.23;;;;;;;;;;5014782;28;20417;-75
2024/02/18 14:36:12;;;;;;;12.57;8.70;;;;;;;;;;5014872;28;20463;-75
2024/02/18 14:38:38;;;;;;;20.20;9.77;;;;;;;;;;5014740;28;20406;-76
2024/02/18 14:41:04;;;;;;;16.27;8.37;;;;;;;;;;5014248;28;20430;-76
2024/02/18 14:43:30;;;;;;;14.70;7.50;;;;;;;;;;5013498;28;20903;-76
2024/02/18 14:45:56;;;;;;;13.70;6.40;;;;;;;;;;5012231;28;20414;-75
2024/02/18 14:48:22;;;;;;;13.37;7.63;;;;;;;;;;5014771;28;20472;-76
2024/02/18 14:50:48;;;;;;;12.00;6.97;;;;;;;;;;5014870;28;20453;-75
2024/02/18 14:53:14;;;;;;;10.20;7.20;;;;;;;;;;5015143;28;20434;-75
2024/02/18 14:55:41;;;;;;;10.20;5.57;;;;;;;;;;5015555;28;20410;-75
2024/02/18 14:58:07;;;;;;;12.80;5.53;;;;;;;;;;5012816;28;20984;-76
2024/02/18 15:00:33;;;;;;;7.40;5.33;;;;;;;;;;5013723;28;20462;-76
2024/02/18 15:02:59;;;;;;;9.20;5.07;;;;;;;;;;5013741;28;20500;-75
2024/02/18 15:05:24;;;;;;;8.50;5.60;;;;;;;;;;5013718;28;20429;-75
2024/02/18 15:07:50;;;;;;;10.33;6.07;;;;;;;;;;5013865;28;20468;-75
2024/02/18 15:10:16;;;;;;;12.03;6.80;;;;;;;;;;5012730;28;20429;-75
2024/02/18 15:12:42;;;;;;;8.80;5.93;;;;;;;;;;5013680;28;20441;-75
2024/02/18 15:15:09;;;;;;;9.67;6.40;;;;;;;;;;5013799;28;20406;-75
2024/02/18 15:17:35;;;;;;;9.00;6.20;;;;;;;;;;5013694;28;20418;-75
2024/02/18 15:20:03;;;;;;;9.50;6.20;;;;;;;;;;5013896;28;20479;-75
2024/02/18 15:22:29;;;;;;;9.97;6.43;;;;;;;;;;5013748;28;20459;-75
2024/02/18 15:24:55;;;;;;;14.17;6.23;;;;;;;;;;5013764;28;20418;-75
2024/02/18 15:27:21;;;;;;;9.07;5.97;;;;;;;;;;5013521;28;20555;-76
2024/02/18 15:29:47;;;;;;;11.33;7.07;;;;;;;;;;5012226;28;20828;-76
2024/02/18 15:32:13;;;;;;;12.30;7.10;;;;;;;;;;5013152;28;20968;-75
2024/02/18 15:34:39;;;;;;;14.37;7.37;;;;;;;;;;5013373;28;20548;-76
2024/02/18 15:37:05;;;;;;;12.20;8.13;;;;;;;;;;5013384;28;20465;-75
2024/02/18 15:39:31;;;;;;;15.23;8.57;;;;;;;;;;5013182;28;20484;-75
2024/02/18 15:41:58;;;;;;;20.27;7.60;;;;;;;;;;5012825;28;20430;-75
2024/02/18 15:44:27;;;;;;;14.20;8.53;;;;;;;;;;5013520;28;20501;-76
2024/02/18 15:46:53;;;;;;;16.20;6.97;;;;;;;;;;5013350;28;20449;-75
2024/02/18 15:49:20;;;;;;;12.27;7.30;;;;;;;;;;5012133;28;20897;-75
2024/02/18 15:51:46;;;;;;;14.50;7.97;;;;;;;;;;5011705;28;20430;-75
2024/02/18 15:54:12;;;;;;;13.40;6.77;;;;;;;;;;5013488;28;20417;-75
2024/02/18 15:56:38;;;;;;;18.13;8.57;;;;;;;;;;5013131;28;20414;-76
2024/02/18 15:59:04;;;;;;;19.93;8.83;;;;;;;;;;5012811;28;20981;-76
2024/02/18 16:01:36;;;;;;;14.43;7.10;;;;;;;;;;5011633;28;20961;-76
2024/02/18 16:04:02;;;;;;;14.50;8.17;;;;;;;;;;5012766;28;20429;-75
2024/02/18 16:06:35;;;;;;;11.07;7.50;;;;;;;;;;5013397;28;20414;-77
2024/02/18 16:09:01;;;;;;;16.80;7.87;;;;;;;;;;5007898;28;20413;-78
2024/02/18 16:11:27;;;;;;;14.60;8.13;;;;;;;;;;5006983;28;20445;-81
2024/02/18 16:13:53;;;;;;;14.17;6.83;;;;;;;;;;4997740;28;20430;-77
2024/02/18 16:16:20;;;;;;;14.30;7.97;;;;;;;;;;4994423;28;20681;-76
2024/02/18 16:18:49;;;;;;;11.57;7.40;;;;;;;;;;4992240;28;20430;-75
2024/02/18 16:21:15;;;;;;;15.80;8.83;;;;;;;;;;4994899;28;20430;-78
2024/02/18 16:23:41;;;;;;;16.40;8.50;;;;;;;;;;4996958;28;20502;-80
2024/02/18 16:26:12;;;;;;;11.83;7.07;;;;;;;;;;4994499;28;20552;-75
2024/02/18 16:28:38;;;;;;;12.97;7.60;;;;;;;;;;4993372;28;20462;-76
2024/02/18 16:31:06;;;;;;;13.07;7.97;;;;;;;;;;4992152;28;20432;-75
2024/02/18 16:33:32;;;;;;;13.20;8.40;;;;;;;;;;4992800;28;20410;-75
2024/02/18 16:35:58;;;;;;;16.20;9.30;;;;;;;;;;4992632;28;20497;-75
2024/02/18 16:38:24;;;;;;;18.57;9.90;;;;;;;;;;4993419;28;20801;-75
2024/02/18 16:40:50;;;;;;;17.00;10.00;;;;;;;;;;4992265;28;20462;-75
2024/02/18 16:43:16;;;;;;;20.63;9.27;;;;;;;;;;4992507;28;20415;-75
2024/02/18 16:45:42;;;;;;;17.63;9.27;;;;;;;;;;4991448;28;21001;-75
2024/02/18 16:48:08;;;;;;;21.23;11.20;;;;;;;;;;4996209;28;20471;-73
2024/02/18 16:50:35;;;;;;;18.53;9.70;;;;;;;;;;4998304;28;20526;-74
2024/02/18 16:53:01;;;;;;;27.23;11.13;;;;;;;;;;5001378;28;20899;-74
2024/02/18 16:55:27;;;;;;;17.10;10.13;;;;;;;;;;5001197;28;20466;-73
2024/02/18 16:57:53;;;;;;;19.70;11.23;;;;;;;;;;4997593;28;20414;-73
2024/02/18 17:00:19;;;;;;;18.37;10.60;;;;;;;;;;5000408;28;20462;-73
2024/02/18 17:02:45;;;;;;;22.70;10.37;;;;;;;;;;5000080;28;20435;-74
2024/02/18 17:05:14;;;;;;;21.70;11.20;;;;;;;;;;4994724;28;20419;-74
2024/02/18 17:07:40;;;;;;;19.67;10.07;;;;;;;;;;4991035;28;20459;-73
2024/02/18 17:10:07;;;;;;;20.07;10.73;;;;;;;;;;4996185;28;20423;-74
2024/02/18 17:12:33;;;;;;;18.00;9.73;;;;;;;;;;4998551;28;20430;-74
2024/02/18 17:15:00;;;;;;;19.63;10.70;;;;;;;;;;4999054;28;20411;-74
2024/02/18 17:17:26;;;;;;;21.83;11.00;;;;;;;;;;4998955;28;20548;-74
2024/02/18 17:19:52;;;;;;;19.33;11.47;;;;;;;;;;4998628;28;20498;-74
2024/02/18 17:22:18;;;;;;;18.93;10.83;;;;;;;;;;4998455;28;20485;-74
2024/02/18 17:24:46;;;;;;;26.30;11.80;;;;;;;;;;4999056;28;20413;-74
2024/02/18 17:27:12;;;;;;;22.20;11.20;;;;;;;;;;4999188;28;20521;-76
2024/02/18 17:29:38;;;;;;;23.67;12.37;;;;;;;;;;5000223;28;20415;-76
2024/02/18 17:32:07;;;;;;;18.47;10.53;;;;;;;;;;4998117;28;20466;-75
2024/02/18 17:34:33;;;;;;;25.40;11.60;;;;;;;;;;4998576;28;20429;-75
2024/02/18 17:36:59;;;;;;;19.20;9.80;;;;;;;;;;4997436;28;20418;-75
2024/02/18 17:39:26;;;;;;;20.60;9.57;;;;;;;;;;4998512;28;20488;-75
2024/02/18 17:41:52;;;;;;;21.63;10.70;;;;;;;;;;4998503;28;20427;-75
2024/02/18 17:44:18;;;;;;;22.07;12.13;;;;;;;;;;4998585;28;20447;-75
2024/02/18 17:46:44;;;;;;;21.57;10.50;;;;;;;;;;4998488;28;20464;-76
2024/02/18 17:49:10;;;;;;;18.57;10.80;;;;;;;;;;4998431;28;20501;-76
2024/02/18 17:51:36;;;;;;;19.47;11.37;;;;;;;;;;4998383;28;20431;-76
2024/02/18 17:54:03;;;;;;;20.20;12.00;;;;;;;;;;4998403;28;20778;-76
2024/02/18 17:56:30;;;;;;;23.40;12.60;;;;;;;;;;4998395;28;20407;-76
2024/02/18 17:58:56;;;;;;;23.07;12.13;;;;;;;;;;4996941;28;20426;-75
2024/02/18 18:01:22;;;;;;;22.63;11.33;;;;;;;;;;4998160;28;20537;-76
2024/02/18 18:03:49;;;;;;;22.17;12.10;;;;;;;;;;4998847;28;20449;-76
2024/02/18 18:06:16;;;;;;;24.20;11.50;;;;;;;;;;4998314;28;20407;-76
2024/02/18 18:08:42;;;;;;;17.97;11.10;;;;;;;;;;4998229;28;20446;-76
2024/02/18 18:11:09;;;;;;;23.53;11.00;;;;;;;;;;4998412;28;20459;-75
2024/02/18 18:13:35;;;;;;;18.50;9.63;;;;;;;;;;4998214;28;20403;-75
2024/02/18 18:16:06;;;;;;;22.97;9.87;;;;;;;;;;4998602;28;20403;-76
2024/02/18 18:18:32;;;;;;;21.70;11.70;;;;;;;;;;4998640;28;20398;-75
2024/02/18 18:20:59;;;;;;;23.20;11.03;;;;;;;;;;4996115;28;20934;-75
2024/02/18 18:23:25;;;;;;;22.50;11.70;;;;;;;;;;4995144;28;20502;-75
2024/02/18 18:25:51;;;;;;;19.90;10.50;;;;;;;;;;4995822;28;20443;-75
2024/02/18 18:28:17;;;;;;;20.10;11.07;;;;;;;;;;4995148;28;20455;-75
2024/02/18 18:30:43;;;;;;;20.07;11.37;;;;;;;;;;4995010;28;20435;-75
2024/02/18 18:33:10;;;;;;;23.10;12.00;;;;;;;;;;4995025;28;20480;-75
2024/02/18 18:35:36;;;;;;;22.27;10.47;;;;;;;;;;4994992;28;20403;-75
2024/02/18 18:38:03;;;;;;;20.20;10.03;;;;;;;;;;4994820;28;20407;-75
2024/02/18 18:40:29;;;;;;;14.20;7.70;;;;;;;;;;4993583;28;20655;-75
2024/02/18 18:42:55;;;;;;;20.40;9.57;;;;;;;;;;4994671;28;20791;-75
2024/02/18 18:45:21;;;;;;;17.90;9.97;;;;;;;;;;4993632;28;20819;-75
2024/02/18 18:47:48;;;;;;;17.43;10.00;;;;;;;;;;4995128;28;20458;-75
2024/02/18 18:50:13;;;;;;;17.10;9.23;;;;;;;;;;4993400;28;20490;-75
2024/02/18 18:52:39;;;;;;;14.03;8.10;;;;;;;;;;4994524;28;20505;-75
2024/02/18 18:55:05;;;;;;;15.03;8.40;;;;;;;;;;4994827;28;20462;-75
2024/02/18 18:57:32;;;;;;;10.00;6.80;;;;;;;;;;4994786;28;20427;-75
2024/02/18 18:59:58;;;;;;;7.40;4.93;;;;;;;;;;4995049;28;20453;-75
2024/02/18 19:02:24;;;;;;;5.63;3.93;;;;;;;;;;4995686;28;20442;-75
2024/02/18 19:04:50;;;;;;;7.37;4.63;;;;;;;;;;4995685;28;20902;-75
2024/02/18 19:07:17;;;;;;;4.77;3.73;;;;;;;;;;4995417;28;20458;-75
2024/02/18 19:09:43;;;;;;;5.70;4.03;;;;;;;;;;4996369;28;20413;-75
2024/02/18 19:12:09;;;;;;;7.67;4.50;;;;;;;;;;5002195;28;20522;-81
2024/02/18 19:14:35;;;;;;;8.87;5.13;;;;;;;;;;5011777;28;20430;-79
2024/02/18 19:17:01;;;;;;;7.60;4.50;;;;;;;;;;5009757;28;20422;-78
2024/02/18 19:19:27;;;;;;;8.03;4.27;;;;;;;;;;5010101;28;20442;-80
2024/02/18 19:21:53;;;;;;;7.90;4.63;;;;;;;;;;5009299;28;20446;-79
2024/02/18 19:24:19;;;;;;;8.93;4.90;;;;;;;;;;4997585;28;20427;-78
2024/02/18 19:26:45;;;;;;;10.60;5.87;;;;;;;;;;4999607;28;20466;-78
2024/02/18 19:29:13;;;;;;;9.50;5.33;;;;;;;;;;4996177;28;20415;-77
2024/02/18 19:31:41;;;;;;;13.97;6.23;;;;;;;;;;4995485;28;20435;-78
2024/02/18 19:34:10;;;;;;;9.50;4.90;;;;;;;;;;4994608;28;20960;-77
2024/02/18 19:36:41;;;;;;;13.53;5.17;;;;;;;;;;4998033;28;20411;-76
2024/02/18 19:39:09;;;;;;;8.47;5.50;;;;;;;;;;4995058;28;20497;-77
2024/02/18 19:41:42;;;;;;;13.40;5.70;;;;;;;;;;4999164;28;20514;-79
2024/02/18 19:44:08;;;;;;;11.97;5.77;;;;;;;;;;4999222;28;20430;-79
2024/02/18 19:46:44;;;;;;;9.00;5.57;;;;;;;;;;4998041;28;20914;-79
2024/02/18 19:49:11;;;;;;;8.07;5.20;;;;;;;;;;4998801;28;20830;-80
2024/02/18 19:51:37;;;;;;;7.37;5.60;;;;;;;;;;4998245;28;20442;-78
2024/02/18 19:54:03;;;;;;;7.40;4.90;;;;;;;;;;4997515;28;20399;-80
2024/02/18 19:56:29;;;;;;;11.00;5.50;;;;;;;;;;4998966;28;20497;-79
2024/02/18 19:58:55;;;;;;;9.50;6.20;;;;;;;;;;4999085;28;20415;-78
2024/02/18 20:01:21;;;;;;;13.27;6.93;;;;;;;;;;4997057;28;20449;-78
2024/02/18 20:03:47;;;;;;;7.87;5.53;;;;;;;;;;4993342;28;20505;-78
2024/02/18 20:06:14;;;;;;;13.50;6.67;;;;;;;;;;4995175;28;20456;-78
2024/02/18 20:08:41;;;;;;;10.13;6.13;;;;;;;;;;4996540;28;20969;-77
2024/02/18 20:11:08;;;;;;;11.30;6.50;;;;;;;;;;4994063;28;20831;-76
2024/02/18 20:13:34;;;;;;;9.87;7.07;;;;;;;;;;4992232;28;20442;-73
2024/02/18 20:16:00;;;;;;;17.50;7.77;;;;;;;;;;4992178;28;20541;-74
2024/02/18 20:18:26;;;;;;;11.83;7.20;;;;;;;;;;4992610;28;20794;-74
2024/02/18 20:20:52;;;;;;;16.27;8.30;;;;;;;;;;4991765;28;20435;-75
2024/02/18 20:23:18;;;;;;;15.27;8.03;;;;;;;;;;4992022;28;20465;-74